Decoded Metar for KRCA (RAPID CITY in SD, USA) (IATA:RCA) | Meteo·Mobile Aviation Weather
aviador You're here:

KRCA Decoded Metar

RAPID CITY in SD, USA
Report Time2019-02-23 08:56:00
UTC Time2019-02-23 09:40:01
Flight Rules vfr VFR
Wind260° at 03 kt
W.Decomp.*RWY 31: 1.5 kt HW 2.6 kt LCW
W.Rank260° ranks 15
Current wind is below 260° avg. (6.0)
Visibility9999 m
Phenomena:N/A
Clouds:N/A
Expected CloudBase > 400 ft AGL from Temp-Dew spread
CeilingNone
Temp-14°C (ISA -23)
Dew Point-15°C (92% RH)
AAT-18.5°C
QNH1011 hPa
Density Alt574 ft
Elevation3,278 ft
Report Wrong Elevation
Raw Report
KRCA 230856Z AUTO 26003KT 10SM CLR M14/M15 A2986 RMK AO2 SLP179
T11441146 58001 FZRANO $=

Extra information for KRCA:More info

Metar Taf Metar & Taf Last 4 Metars F.Rules Stats Wind Profile Meteogram Temp Stats Airport Information Weather charts Add Link Nearby VenuesMetar ALERT Operation Metar Decoded Social comments

AIRNAV info for KRCA